Time;durP1;ratioP1;P1;durP2;ratioP2;P2;SDS_P1;SDS_P2;PMS_P1;PMS_P2;Temp;Humidity;BMP_temperature;BMP_pressure;BME280_temperature;BME280_humidity;BME280_pressure;Samples;Min_cycle;Max_cycle;Signal;HPM_P1;HPM_P2
2023/03/30 00:00:17;;;;;;;27.20;3.97;;;16.80;73.80;;;;;;5083000;28;20089;-64
2023/03/30 00:02:44;;;;;;;18.70;3.50;;;16.40;76.30;;;;;;5075489;28;20023;-67
2023/03/30 00:05:10;;;;;;;23.02;4.15;;;15.90;78.00;;;;;;5073280;28;20035;-65
2023/03/30 00:07:41;;;;;;;20.10;3.97;;;15.80;78.50;;;;;;5051192;28;20429;-65
2023/03/30 00:10:10;;;;;;;20.45;3.70;;;15.90;78.00;;;;;;5057456;28;20318;-64
2023/03/30 00:12:36;;;;;;;20.77;4.18;;;16.00;77.70;;;;;;5069613;28;20463;-64
2023/03/30 00:15:04;;;;;;;20.77;3.85;;;16.10;78.00;;;;;;5073447;28;20036;-65
2023/03/30 00:17:32;;;;;;;25.38;3.47;;;16.10;77.80;;;;;;5070132;28;20890;-65
2023/03/30 00:20:00;;;;;;;14.70;3.97;;;16.20;77.40;;;;;;5078907;28;20453;-65
2023/03/30 00:22:26;;;;;;;20.52;3.80;;;16.20;77.70;;;;;;5074390;28;20108;-65
2023/03/30 00:24:52;;;;;;;25.73;4.22;;;16.10;77.40;;;;;;5073703;28;20024;-65
2023/03/30 00:27:18;;;;;;;26.88;3.95;;;16.10;78.10;;;;;;5073026;28;20063;-65
2023/03/30 00:29:43;;;;;;;20.90;3.75;;;15.90;78.50;;;;;;5081158;28;20044;-66
2023/03/30 00:32:09;;;;;;;19.48;3.53;;;15.70;79.50;;;;;;5081764;28;20039;-65
2023/03/30 00:34:35;;;;;;;19.73;3.92;;;15.50;80.00;;;;;;5074988;28;20040;-65
2023/03/30 00:37:02;;;;;;;20.35;4.95;;;15.40;81.00;;;;;;5082856;28;20024;-66
2023/03/30 00:39:28;;;;;;;20.90;3.95;;;15.30;80.90;;;;;;5084645;28;20035;-65
2023/03/30 00:41:54;;;;;;;27.58;4.80;;;15.30;81.00;;;;;;5086277;28;20032;-65
2023/03/30 00:44:57;;;;;;;21.92;3.70;;;15.30;80.40;;;;;;5082747;28;20051;-65
2023/03/30 00:47:23;;;;;;;21.00;4.03;;;15.50;80.10;;;;;;5079725;28;20024;-66
2023/03/30 00:49:49;;;;;;;20.85;3.55;;;15.50;80.30;;;;;;5082147;28;20344;-66
2023/03/30 00:52:18;;;;;;;21.35;4.13;;;15.40;80.30;;;;;;5086240;28;20033;-65
2023/03/30 00:54:46;;;;;;;22.83;3.90;;;15.30;80.70;;;;;;5078574;28;20158;-65
2023/03/30 00:57:12;;;;;;;20.20;4.13;;;15.40;80.00;;;;;;5082260;28;20040;-65
2023/03/30 00:59:38;;;;;;;17.00;3.30;;;15.40;79.80;;;;;;5089806;28;20375;-64
2023/03/30 01:02:04;;;;;;;16.60;3.55;;;15.40;80.10;;;;;;5082864;28;20108;-65
2023/03/30 01:04:30;;;;;;;22.27;4.47;;;15.40;80.00;;;;;;5088830;28;20039;-65
2023/03/30 01:06:57;;;;;;;22.40;4.13;;;15.50;79.70;;;;;;5089778;28;20024;-65
2023/03/30 01:09:24;;;;;;;19.73;3.47;;;15.50;79.40;;;;;;5083930;28;20036;-65
2023/03/30 01:11:50;;;;;;;17.35;4.18;;;15.50;79.90;;;;;;5089825;28;20107;-68
2023/03/30 01:14:16;;;;;;;14.25;3.67;;;15.40;79.90;;;;;;5080646;28;20535;-64
2023/03/30 01:17:05;;;;;;;22.63;3.72;;;15.40;80.20;;;;;;5083908;28;20027;-65
2023/03/30 01:19:47;;;;;;;25.23;4.55;;;15.40;79.60;;;;;;5071500;28;20021;-65
2023/03/30 01:22:39;;;;;;;14.80;2.88;;;15.40;80.30;;;;;;5081332;28;20739;-65
2023/03/30 01:25:21;;;;;;;15.50;3.38;;;15.30;80.80;;;;;;5072732;28;20029;-65
2023/03/30 01:28:05;;;;;;;20.58;4.43;;;15.30;80.40;;;;;;5076279;28;20024;-65
2023/03/30 01:31:06;;;;;;;14.40;3.42;;;15.30;80.50;;;;;;5055217;28;20037;-65
2023/03/30 01:33:49;;;;;;;19.02;3.63;;;15.30;80.50;;;;;;5032856;28;20048;-65
2023/03/30 01:36:18;;;;;;;18.80;4.07;;;15.60;79.10;;;;;;5051688;28;20032;-65
2023/03/30 01:38:52;;;;;;;25.33;4.70;;;15.90;78.50;;;;;;5049753;28;20044;-64
2023/03/30 01:41:36;;;;;;;18.20;4.28;;;15.90;77.60;;;;;;5052529;28;20024;-65
2023/03/30 01:44:24;;;;;;;30.83;4.45;;;16.00;78.00;;;;;;5055314;28;20024;-65
2023/03/30 01:46:56;;;;;;;23.25;4.55;;;15.80;79.80;;;;;;5052335;28;21641;-65
2023/03/30 01:49:39;;;;;;;25.02;5.18;;;15.20;83.50;;;;;;5062441;28;20135;-65
2023/03/30 01:52:14;;;;;;;18.52;3.83;;;14.60;86.50;;;;;;5077285;28;20046;-65
2023/03/30 01:54:50;;;;;;;20.00;3.78;;;14.20;87.90;;;;;;5083602;28;20028;-65
2023/03/30 01:57:42;;;;;;;19.80;4.18;;;14.00;89.50;;;;;;5072043;28;20044;-66
2023/03/30 02:00:16;;;;;;;21.73;4.80;;;13.70;91.10;;;;;;5074661;28;20033;-66
2023/03/30 02:02:47;;;;;;;20.30;4.40;;;13.20;92.90;;;;;;5071567;28;20028;-66
2023/03/30 02:05:16;;;;;;;20.52;4.65;;;12.80;95.00;;;;;;5079989;28;20028;-66
2023/03/30 02:07:48;;;;;;;22.40;4.13;;;12.50;94.70;;;;;;5095801;28;20077;-65
2023/03/30 02:10:17;;;;;;;20.17;3.90;;;12.40;95.30;;;;;;5073123;28;20032;-66
2023/03/30 02:12:44;;;;;;;21.95;3.88;;;12.40;95.10;;;;;;5078464;28;20095;-66
2023/03/30 02:15:13;;;;;;;17.02;4.05;;;12.50;95.10;;;;;;5078931;28;20040;-66
2023/03/30 02:17:41;;;;;;;25.55;5.03;;;12.50;94.90;;;;;;5072157;28;20356;-65
2023/03/30 02:20:11;;;;;;;21.80;4.72;;;12.50;95.00;;;;;;5082047;28;20052;-66
2023/03/30 02:22:37;;;;;;;18.52;3.72;;;12.50;95.30;;;;;;5085515;28;20027;-66
2023/03/30 02:25:05;;;;;;;20.73;4.13;;;12.60;95.80;;;;;;5083687;28;20028;-66
2023/03/30 02:27:32;;;;;;;16.00;3.95;;;12.50;95.30;;;;;;5084061;28;20017;-67
2023/03/30 02:29:58;;;;;;;26.00;4.65;;;12.40;95.40;;;;;;5070067;28;20035;-66
2023/03/30 02:32:27;;;;;;;22.70;4.28;;;12.40;95.20;;;;;;5076990;28;20025;-66
2023/03/30 02:35:17;;;;;;;21.92;5.20;;;12.40;94.70;;;;;;5066249;28;21382;-66
2023/03/30 02:37:55;;;;;;;22.73;4.18;;;12.40;94.90;;;;;;5067141;28;20024;-66
2023/03/30 02:40:42;;;;;;;24.70;4.45;;;12.40;95.60;;;;;;5081422;28;20021;-67
2023/03/30 02:43:19;;;;;;;27.55;5.82;;;12.40;95.60;;;;;;5081783;28;20032;-66
2023/03/30 02:46:18;;;;;;;27.70;5.47;;;12.60;95.60;;;;;;5082787;28;20032;-66
2023/03/30 02:49:13;;;;;;;22.88;4.75;;;12.60;95.30;;;;;;5074286;28;20409;-68
2023/03/30 02:51:45;;;;;;;28.75;4.82;;;12.50;96.20;;;;;;5072191;28;20575;-67
2023/03/30 02:54:40;;;;;;;16.70;4.32;;;12.50;94.80;;;;;;5079066;28;20032;-66
2023/03/30 02:57:14;;;;;;;23.73;5.95;;;12.40;95.40;;;;;;5061213;28;20063;-66
2023/03/30 02:59:42;;;;;;;;;;;12.50;95.50;;;;;;5070625;28;20324;-67
2023/03/30 03:02:20;;;;;;;20.73;4.68;;;12.30;95.40;;;;;;5068533;28;19916;-67
2023/03/30 03:04:48;;;;;;;22.08;5.15;;;12.30;95.60;;;;;;5077277;28;20488;-67
2023/03/30 03:07:14;;;;;;;26.88;4.75;;;12.40;95.40;;;;;;5068212;28;20032;-66
2023/03/30 03:09:41;;;;;;;20.85;5.00;;;12.30;94.90;;;;;;5077436;28;20024;-66
2023/03/30 03:12:06;;;;;;;23.60;5.72;;;12.20;95.20;;;;;;5072657;28;20024;-66
2023/03/30 03:14:32;;;;;;;20.45;3.85;;;12.20;94.20;;;;;;5091276;28;20416;-66
2023/03/30 03:16:58;;;;;;;19.95;4.13;;;12.20;95.10;;;;;;5081577;28;20024;-66
2023/03/30 03:19:23;;;;;;;17.58;4.22;;;12.30;95.90;;;;;;5073447;28;20061;-66
2023/03/30 03:21:50;;;;;;;25.25;4.78;;;12.20;95.10;;;;;;5073513;28;20042;-65
2023/03/30 03:24:17;;;;;;;24.50;4.70;;;12.10;95.20;;;;;;5073303;28;20306;-66
2023/03/30 03:26:43;;;;;;;21.77;5.18;;;12.20;94.70;;;;;;5070388;28;20031;-66
2023/03/30 03:29:09;;;;;;;23.27;4.53;;;12.10;93.90;;;;;;5075065;28;20328;-66
2023/03/30 03:31:34;;;;;;;17.58;4.30;;;12.00;94.40;;;;;;5072244;28;20040;-66
2023/03/30 03:34:00;;;;;;;19.95;4.50;;;12.00;93.90;;;;;;5071633;28;20032;-66
2023/03/30 03:36:29;;;;;;;20.50;5.78;;;12.00;92.80;;;;;;5078090;28;20024;-65
2023/03/30 03:38:56;;;;;;;20.85;4.22;;;11.90;92.70;;;;;;5083266;28;20104;-65
2023/03/30 03:41:21;;;;;;;20.33;4.68;;;11.90;93.70;;;;;;5088293;28;20138;-66
2023/03/30 03:43:47;;;;;;;26.08;5.10;;;11.80;93.00;;;;;;5081955;28;20056;-66
2023/03/30 03:46:13;;;;;;;23.00;5.43;;;11.90;94.00;;;;;;5083356;28;20032;-66
2023/03/30 03:48:39;;;;;;;22.30;4.47;;;12.00;94.20;;;;;;5082287;28;20028;-66
2023/03/30 03:51:05;;;;;;;30.90;4.88;;;12.10;95.30;;;;;;5076045;28;20099;-66
2023/03/30 03:53:31;;;;;;;27.02;5.00;;;12.10;95.30;;;;;;5085074;28;20052;-66
2023/03/30 03:55:57;;;;;;;22.77;4.60;;;12.20;95.90;;;;;;5081483;28;20025;-66
2023/03/30 03:58:24;;;;;;;32.35;5.15;;;12.30;96.10;;;;;;5080273;28;20059;-66
2023/03/30 04:00:50;;;;;;;20.50;4.38;;;12.30;96.00;;;;;;5081539;28;20060;-66
2023/03/30 04:03:17;;;;;;;19.05;4.57;;;12.30;96.50;;;;;;5082124;28;20032;-66
2023/03/30 04:05:43;;;;;;;24.15;4.13;;;12.30;96.20;;;;;;5076420;28;20032;-66
2023/03/30 04:08:09;;;;;;;15.60;3.95;;;12.40;96.20;;;;;;5083418;28;20047;-66
2023/03/30 04:10:37;;;;;;;25.58;4.88;;;12.40;96.30;;;;;;5075853;28;20029;-66
2023/03/30 04:13:03;;;;;;;20.77;3.92;;;12.50;96.40;;;;;;5075026;28;20028;-66
2023/03/30 04:15:29;;;;;;;27.23;4.80;;;12.50;96.30;;;;;;5090591;28;20095;-66
2023/03/30 04:17:57;;;;;;;22.33;4.72;;;12.50;96.20;;;;;;5081507;28;20158;-66
2023/03/30 04:20:27;;;;;;;19.42;3.80;;;12.50;96.20;;;;;;5079724;28;20028;-66
2023/03/30 04:22:54;;;;;;;22.35;4.68;;;12.50;96.40;;;;;;5090892;28;20020;-66
2023/03/30 04:25:21;;;;;;;24.80;4.50;;;12.50;96.40;;;;;;5088249;28;20028;-66
2023/03/30 04:27:50;;;;;;;23.77;5.32;;;12.40;96.50;;;;;;5078941;28;20036;-66
2023/03/30 04:30:16;;;;;;;23.33;5.22;;;12.50;96.30;;;;;;5082221;28;20029;-66
2023/03/30 04:32:43;;;;;;;15.00;3.72;;;12.60;96.70;;;;;;5075002;28;20443;-66
2023/03/30 04:35:09;;;;;;;24.73;4.35;;;12.60;96.50;;;;;;5082325;28;20328;-66
2023/03/30 04:37:37;;;;;;;15.93;4.15;;;12.60;96.40;;;;;;5088035;28;20027;-66
2023/03/30 04:40:08;;;;;;;23.02;4.30;;;12.60;96.70;;;;;;5094024;28;20035;-66
2023/03/30 04:42:36;;;;;;;20.00;4.30;;;12.60;96.20;;;;;;5077855;28;20432;-66
2023/03/30 04:45:11;;;;;;;21.92;4.88;;;12.60;96.60;;;;;;5080493;28;20031;-66
2023/03/30 04:47:37;;;;;;;22.13;5.40;;;12.60;96.80;;;;;;5085470;28;20042;-66
2023/03/30 04:50:02;;;;;;;21.40;4.60;;;12.70;96.40;;;;;;5081721;28;20095;-66
2023/03/30 04:52:28;;;;;;;23.15;4.55;;;12.80;96.80;;;;;;5090263;28;20063;-66
2023/03/30 04:54:54;;;;;;;25.45;4.55;;;12.80;96.50;;;;;;5092559;28;20064;-66
2023/03/30 04:57:20;;;;;;;21.95;4.63;;;12.80;96.40;;;;;;5087277;28;20110;-66
2023/03/30 04:59:45;;;;;;;18.40;4.20;;;12.80;96.30;;;;;;5060523;28;20060;-66
2023/03/30 05:02:12;;;;;;;24.27;4.78;;;12.80;96.10;;;;;;5069204;28;21037;-66
2023/03/30 05:04:38;;;;;;;17.88;3.83;;;12.80;96.20;;;;;;5048448;28;20161;-66
2023/03/30 05:07:05;;;;;;;21.27;4.32;;;12.80;96.20;;;;;;5054564;28;21552;-66
2023/03/30 05:09:30;;;;;;;22.90;4.38;;;12.70;96.10;;;;;;5070393;28;20017;-66
2023/03/30 05:11:56;;;;;;;16.38;4.68;;;12.60;96.30;;;;;;5081181;28;20320;-66
2023/03/30 05:14:21;;;;;;;19.05;4.15;;;12.60;96.20;;;;;;5075542;28;20115;-66
2023/03/30 05:16:47;;;;;;;22.63;4.55;;;12.60;96.20;;;;;;5060705;28;20473;-66
2023/03/30 05:19:13;;;;;;;20.27;4.05;;;12.50;96.10;;;;;;5063518;28;20028;-66
2023/03/30 05:21:38;;;;;;;18.60;4.30;;;12.60;96.20;;;;;;5065891;28;20110;-66
2023/03/30 05:24:12;;;;;;;18.02;4.65;;;12.70;95.80;;;;;;5066572;28;20028;-65
2023/03/30 05:26:37;;;;;;;20.20;4.35;;;12.90;94.80;;;;;;5062104;28;20990;-65
2023/03/30 05:29:03;;;;;;;21.75;4.68;;;13.00;94.80;;;;;;5066212;28;20039;-65
2023/03/30 05:31:28;;;;;;;28.77;5.03;;;13.00;94.80;;;;;;5064920;28;20067;-65
2023/03/30 05:33:54;;;;;;;17.60;4.78;;;13.10;93.70;;;;;;5073525;28;20313;-65
2023/03/30 05:36:20;;;;;;;17.83;4.13;;;13.50;92.60;;;;;;5072275;28;20020;-66
2023/03/30 05:38:45;;;;;;;21.50;4.07;;;13.70;91.70;;;;;;5075507;28;20025;-66
2023/03/30 05:41:11;;;;;;;15.80;4.20;;;13.80;91.20;;;;;;5078641;28;20060;-67
2023/03/30 05:43:36;;;;;;;19.17;3.88;;;13.80;90.80;;;;;;5087404;28;20051;-66
2023/03/30 05:46:03;;;;;;;21.33;4.43;;;14.10;90.10;;;;;;5081186;28;20051;-67
2023/03/30 05:48:30;;;;;;;18.20;4.38;;;14.10;90.60;;;;;;5080356;28;20081;-66
2023/03/30 05:50:56;;;;;;;14.88;3.70;;;13.90;91.90;;;;;;5082448;28;20389;-66
2023/03/30 05:53:21;;;;;;;19.65;4.78;;;13.80;91.50;;;;;;5083157;28;20028;-67
2023/03/30 05:55:48;;;;;;;26.15;4.32;;;13.90;90.60;;;;;;5090000;28;20027;-66
2023/03/30 05:58:15;;;;;;;21.75;3.88;;;14.00;90.80;;;;;;5092662;28;20047;-66
2023/03/30 06:00:42;;;;;;;17.70;3.45;;;14.00;90.70;;;;;;5079814;28;20025;-66
2023/03/30 06:03:08;;;;;;;25.00;5.05;;;14.10;89.70;;;;;;5085856;28;20044;-66
2023/03/30 06:05:35;;;;;;;28.92;4.20;;;14.30;88.90;;;;;;5086884;28;20101;-66
2023/03/30 06:08:01;;;;;;;19.65;4.38;;;14.40;88.30;;;;;;5094039;28;20290;-66
2023/03/30 06:10:26;;;;;;;18.08;3.92;;;14.50;88.10;;;;;;5086370;28;20029;-66
2023/03/30 06:12:52;;;;;;;19.13;3.90;;;14.50;88.30;;;;;;5092433;28;20351;-66
2023/03/30 06:15:18;;;;;;;21.00;4.03;;;14.50;88.20;;;;;;5086925;28;20024;-67
2023/03/30 06:17:43;;;;;;;23.20;3.78;;;14.50;87.10;;;;;;5079693;28;20035;-66
2023/03/30 06:20:12;;;;;;;17.70;4.05;;;14.60;87.20;;;;;;5082354;28;20064;-66
2023/03/30 06:22:40;;;;;;;19.65;3.53;;;14.70;87.30;;;;;;5082233;28;20025;-66
2023/03/30 06:25:07;;;;;;;24.00;5.10;;;14.60;86.90;;;;;;5084684;28;20016;-67
2023/03/30 06:27:33;;;;;;;23.08;4.53;;;14.30;89.70;;;;;;5084329;28;20024;-68
2023/03/30 06:29:59;;;;;;;20.38;4.05;;;13.70;93.30;;;;;;5083372;28;20475;-67
2023/03/30 06:32:25;;;;;;;25.48;6.03;;;13.20;94.90;;;;;;5091385;28;20093;-67
2023/03/30 06:34:52;;;;;;;15.82;4.10;;;12.80;95.60;;;;;;5075786;28;20024;-67
2023/03/30 06:37:18;;;;;;;22.35;4.30;;;12.50;95.60;;;;;;5090192;28;20033;-67
2023/03/30 06:39:44;;;;;;;18.42;4.97;;;12.50;95.60;;;;;;5081223;28;20016;-67
2023/03/30 06:42:10;;;;;;;22.10;4.35;;;12.40;96.50;;;;;;5091461;28;20032;-67
2023/03/30 06:44:36;;;;;;;21.27;4.68;;;12.40;96.20;;;;;;5077790;28;20108;-66
2023/03/30 06:47:04;;;;;;;19.35;3.65;;;12.50;96.10;;;;;;5090799;28;20021;-67
2023/03/30 06:49:29;;;;;;;18.23;4.03;;;12.60;95.00;;;;;;5084153;28;20110;-67
2023/03/30 06:51:55;;;;;;;22.10;3.42;;;12.90;94.10;;;;;;5083186;28;20131;-66
2023/03/30 06:54:21;;;;;;;16.00;4.18;;;13.00;93.00;;;;;;5080507;28;20024;-67
2023/03/30 06:56:47;;;;;;;21.30;3.97;;;13.30;92.90;;;;;;5088038;28;20017;-67
2023/03/30 06:59:12;;;;;;;15.15;3.65;;;13.60;91.20;;;;;;5096361;28;20485;-66
2023/03/30 07:01:38;;;;;;;18.55;3.70;;;14.10;90.50;;;;;;5094594;28;20085;-66
2023/03/30 07:04:04;;;;;;;15.45;3.38;;;14.50;87.50;;;;;;5077121;28;20047;-66
2023/03/30 07:06:30;;;;;;;16.77;3.90;;;15.00;86.50;;;;;;5097258;28;20063;-66
2023/03/30 07:08:56;;;;;;;21.92;4.85;;;15.30;85.30;;;;;;5088874;28;20032;-67
2023/03/30 07:11:22;;;;;;;20.15;5.15;;;15.30;85.50;;;;;;5091961;28;20413;-66
2023/03/30 07:13:47;;;;;;;17.33;4.93;;;15.20;86.90;;;;;;5082372;28;20063;-66
2023/03/30 07:16:13;;;;;;;26.42;5.35;;;15.00;88.60;;;;;;5080480;28;20033;-66
2023/03/30 07:18:38;;;;;;;18.85;5.25;;;14.50;92.20;;;;;;5076946;28;20032;-66
2023/03/30 07:21:04;;;;;;;23.27;7.65;;;13.90;94.10;;;;;;5081962;28;20452;-66
2023/03/30 07:23:30;;;;;;;18.00;4.53;;;13.60;94.40;;;;;;5082586;28;20029;-66
2023/03/30 07:25:56;;;;;;;24.35;6.20;;;13.50;94.60;;;;;;5087948;28;20374;-66
2023/03/30 07:28:21;;;;;;;20.98;5.03;;;13.50;94.00;;;;;;5094103;28;20036;-66
2023/03/30 07:30:47;;;;;;;25.77;6.43;;;13.50;94.10;;;;;;5077903;28;20033;-67
2023/03/30 07:33:13;;;;;;;20.08;4.63;;;13.40;94.50;;;;;;5080370;28;20032;-66
2023/03/30 07:35:44;;;;;;;19.13;4.38;;;13.40;94.50;;;;;;5082203;28;20036;-66
2023/03/30 07:38:10;;;;;;;25.95;5.50;;;13.40;94.60;;;;;;5087582;28;20020;-66
2023/03/30 07:40:36;;;;;;;22.75;6.40;;;13.30;95.10;;;;;;5084904;28;20016;-67
2023/03/30 07:43:01;;;;;;;20.80;4.55;;;13.30;95.40;;;;;;5082577;28;20409;-66
2023/03/30 07:45:27;;;;;;;19.77;5.00;;;13.20;95.80;;;;;;5081766;28;20433;-66
2023/03/30 07:47:53;;;;;;;14.68;4.70;;;13.20;95.80;;;;;;5087566;28;20034;-66
2023/03/30 07:50:18;;;;;;;19.65;4.53;;;13.50;96.00;;;;;;5082776;28;20070;-66
2023/03/30 07:52:44;;;;;;;20.30;5.15;;;13.80;95.10;;;;;;5085752;28;20024;-66
2023/03/30 07:55:09;;;;;;;18.48;4.95;;;14.20;94.70;;;;;;5088502;28;20024;-66
2023/03/30 07:57:35;;;;;;;17.23;4.50;;;14.40;93.80;;;;;;5088307;28;20044;-66
2023/03/30 08:00:04;;;;;;;23.67;4.85;;;14.60;93.60;;;;;;5094977;28;20111;-66
2023/03/30 08:02:29;;;;;;;24.95;5.15;;;14.60;94.00;;;;;;5095129;28;20020;-66
2023/03/30 08:04:55;;;;;;;21.92;4.57;;;14.70;94.40;;;;;;5088390;28;20466;-66
2023/03/30 08:07:20;;;;;;;20.75;4.57;;;14.70;93.50;;;;;;5085880;28;20047;-66
2023/03/30 08:09:46;;;;;;;20.40;6.00;;;14.40;94.00;;;;;;5089822;28;20032;-66
2023/03/30 08:12:11;;;;;;;21.40;5.63;;;14.20;94.60;;;;;;5094743;28;20047;-66
2023/03/30 08:14:37;;;;;;;21.27;5.20;;;13.90;95.60;;;;;;5081555;28;20024;-66
2023/03/30 08:17:02;;;;;;;16.70;4.93;;;13.60;95.90;;;;;;5095107;28;20409;-66
2023/03/30 08:19:28;;;;;;;16.55;4.45;;;13.30;95.90;;;;;;5082831;28;20052;-65
2023/03/30 08:21:55;;;;;;;20.17;5.10;;;13.20;96.20;;;;;;5095228;28;20405;-65
2023/03/30 08:24:21;;;;;;;16.60;4.60;;;13.20;96.40;;;;;;5102340;28;20032;-65
2023/03/30 08:26:46;;;;;;;22.45;5.90;;;13.30;96.40;;;;;;5089269;28;20040;-65
2023/03/30 08:29:12;;;;;;;23.35;5.57;;;13.40;96.50;;;;;;5080587;28;20050;-65
2023/03/30 08:31:38;;;;;;;14.07;3.60;;;13.50;96.60;;;;;;5078533;28;20025;-66
2023/03/30 08:34:03;;;;;;;16.48;4.90;;;13.40;96.20;;;;;;5084022;28;20024;-66
2023/03/30 08:36:29;;;;;;;21.90;4.50;;;13.20;96.80;;;;;;5077604;28;20100;-66
2023/03/30 08:38:59;;;;;;;15.82;5.40;;;13.00;95.80;;;;;;5079558;28;20024;-66
2023/03/30 08:41:39;;;;;;;17.63;4.80;;;12.80;94.80;;;;;;5076610;28;20103;-66
2023/03/30 08:44:41;;;;;;;18.83;6.50;;;12.50;93.90;;;;;;5076051;28;20415;-66
2023/03/30 08:47:20;;;;;;;20.90;5.95;;;12.30;91.10;;;;;;5092712;28;20104;-66
2023/03/30 08:50:05;;;;;;;17.95;5.85;;;12.00;89.30;;;;;;5077955;28;20027;-66
2023/03/30 08:52:32;;;;;;;16.75;4.43;;;11.80;87.20;;;;;;5079915;28;20059;-66
2023/03/30 08:54:58;;;;;;;17.17;5.60;;;11.60;86.30;;;;;;5079523;28;20027;-67
2023/03/30 08:57:46;;;;;;;22.90;5.95;;;11.50;84.80;;;;;;5083834;28;20332;-66
2023/03/30 09:00:26;;;;;;;21.60;6.30;;;11.50;82.70;;;;;;5083758;28;20031;-67
2023/03/30 09:02:59;;;;;;;18.42;6.95;;;11.40;81.90;;;;;;5075672;28;20024;-67
2023/03/30 09:05:28;;;;;;;23.98;7.05;;;11.40;79.60;;;;;;5075616;28;20421;-67
2023/03/30 09:08:03;;;;;;;20.17;7.20;;;11.30;78.10;;;;;;5078127;28;20107;-68
2023/03/30 09:10:35;;;;;;;22.10;8.50;;;11.20;77.10;;;;;;5094611;28;20035;-68
2023/03/30 09:13:04;;;;;;;14.93;5.35;;;11.20;76.00;;;;;;5090907;28;20029;-67
2023/03/30 09:15:48;;;;;;;14.95;5.32;;;11.10;74.90;;;;;;5078364;28;20309;-67
2023/03/30 09:18:36;;;;;;;17.23;6.90;;;11.00;73.40;;;;;;5085589;28;20023;-67
2023/03/30 09:21:04;;;;;;;12.23;5.60;;;10.90;71.70;;;;;;5077322;28;20024;-67
2023/03/30 09:23:31;;;;;;;18.88;5.57;;;10.90;70.30;;;;;;5077805;28;20024;-67
2023/03/30 09:26:30;;;;;;;15.13;5.57;;;10.90;69.20;;;;;;5078956;28;20399;-67
2023/03/30 09:29:07;;;;;;;17.25;7.47;;;10.80;71.40;;;;;;5077541;28;20156;-67
2023/03/30 09:31:45;;;;;;;14.05;5.47;;;10.70;70.80;;;;;;5080952;28;20035;-67
2023/03/30 09:34:26;;;;;;;16.40;4.85;;;10.70;72.40;;;;;;5079024;28;20394;-67
2023/03/30 09:37:08;;;;;;;14.30;4.10;;;10.60;75.70;;;;;;5080685;28;20052;-66
2023/03/30 09:39:35;;;;;;;12.63;4.63;;;10.60;76.80;;;;;;5080926;28;20020;-67
2023/03/30 09:42:01;;;;;;;13.38;4.22;;;10.60;76.70;;;;;;5080000;28;20020;-67
2023/03/30 09:44:36;;;;;;;13.88;4.38;;;10.50;76.10;;;;;;5076354;28;20024;-67
2023/03/30 09:47:19;;;;;;;12.35;3.90;;;10.50;75.80;;;;;;5078718;28;20066;-67
2023/03/30 09:49:44;;;;;;;12.88;6.05;;;10.40;75.70;;;;;;5077814;28;20020;-67
2023/03/30 09:52:21;;;;;;;8.05;3.97;;;10.50;75.20;;;;;;5070188;28;20029;-67
2023/03/30 09:54:46;;;;;;;9.15;3.20;;;10.50;77.10;;;;;;5077098;28;20078;-67
2023/03/30 09:57:30;;;;;;;6.07;3.05;;;10.60;80.40;;;;;;5079227;28;20040;-66
2023/03/30 09:59:58;;;;;;;8.37;3.37;;;10.80;90.20;;;;;;5082300;28;20028;-66
2023/03/30 10:02:26;;;;;;;9.48;3.15;;;10.90;92.30;;;;;;5077377;28;20470;-66
2023/03/30 10:04:52;;;;;;;7.13;3.10;;;11.00;92.80;;;;;;5091404;28;20420;-66
2023/03/30 10:07:40;;;;;;;9.35;3.83;;;11.10;93.60;;;;;;5095924;28;20066;-66
2023/03/30 10:10:25;;;;;;;10.25;4.05;;;11.20;93.90;;;;;;5075646;28;20294;-66
2023/03/30 10:12:53;;;;;;;;;;;11.20;94.80;;;;;;5076069;28;20020;-66
2023/03/30 10:15:22;;;;;;;10.48;3.67;;;11.30;93.80;;;;;;5086586;28;19918;-67
2023/03/30 10:17:50;;;;;;;8.32;4.25;;;11.40;94.40;;;;;;5084220;28;20017;-66
2023/03/30 10:20:37;;;;;;;8.55;3.85;;;11.60;95.20;;;;;;5076287;28;20443;-66
2023/03/30 10:23:12;;;;;;;12.18;3.40;;;11.80;95.90;;;;;;5075572;28;20394;-65
2023/03/30 10:25:40;;;;;;;11.40;3.70;;;11.80;96.90;;;;;;5080117;28;20052;-66
2023/03/30 10:28:20;;;;;;;9.18;4.32;;;11.90;96.00;;;;;;5092441;28;20032;-67
2023/03/30 10:30:52;;;;;;;12.02;4.25;;;11.80;97.20;;;;;;5075891;28;20086;-66
2023/03/30 10:33:19;;;;;;;9.05;3.35;;;11.80;96.70;;;;;;5080590;28;20324;-65
2023/03/30 10:35:47;;;;;;;8.50;3.60;;;11.90;96.90;;;;;;5085075;28;20040;-65
2023/03/30 10:38:14;;;;;;;12.38;3.40;;;12.00;97.80;;;;;;5080020;28;20348;-66
2023/03/30 10:40:43;;;;;;;11.00;3.08;;;12.20;96.60;;;;;;5095776;28;20051;-66
2023/03/30 10:43:19;;;;;;;10.68;2.80;;;12.60;97.60;;;;;;5091821;28;20754;-65
2023/03/30 10:45:51;;;;;;;8.38;3.20;;;13.00;97.10;;;;;;5077539;28;20021;-65
2023/03/30 10:48:26;;;;;;;9.50;3.58;;;13.10;96.30;;;;;;5079897;28;20095;-66
2023/03/30 10:51:09;;;;;;;8.45;2.45;;;13.10;96.00;;;;;;5076014;28;20024;-65
2023/03/30 10:53:54;;;;;;;11.25;2.97;;;13.00;96.00;;;;;;5075190;28;20029;-65
2023/03/30 10:56:26;;;;;;;8.20;2.88;;;12.90;96.20;;;;;;5080684;28;20020;-65
2023/03/30 10:59:13;;;;;;;11.23;3.13;;;13.00;96.30;;;;;;5086523;28;20098;-65
2023/03/30 11:02:18;;;;;;;12.25;3.55;;;12.90;96.10;;;;;;5079406;28;20120;-65
2023/03/30 11:04:52;;;;;;;10.57;3.60;;;12.90;96.00;;;;;;5074696;28;20024;-65
2023/03/30 11:07:26;;;;;;;;;;;12.90;96.30;;;;;;5076114;28;20025;-66
2023/03/30 11:09:57;;;;;;;11.63;3.73;;;12.90;96.40;;;;;;5086935;28;20292;-65
2023/03/30 11:12:28;;;;;;;10.35;3.10;;;13.10;95.60;;;;;;5084070;28;20082;-65
2023/03/30 11:15:06;;;;;;;8.20;3.05;;;13.20;95.60;;;;;;5076354;28;20032;-65
2023/03/30 11:17:39;;;;;;;9.82;3.20;;;13.40;95.20;;;;;;5081488;28;20017;-64
2023/03/30 11:20:22;;;;;;;12.85;3.50;;;13.90;94.10;;;;;;5083666;28;20012;-64
2023/03/30 11:22:57;;;;;;;12.23;3.70;;;14.50;93.60;;;;;;5094569;28;20107;-64
2023/03/30 11:25:38;;;;;;;11.73;3.83;;;14.60;92.60;;;;;;5081587;28;20305;-65
2023/03/30 11:28:12;;;;;;;13.88;4.00;;;14.50;92.60;;;;;;5085529;28;20028;-65
2023/03/30 11:30:39;;;;;;;10.38;3.63;;;14.40;92.90;;;;;;5084215;28;20024;-65
2023/03/30 11:33:27;;;;;;;11.30;4.07;;;14.30;93.00;;;;;;5081477;28;20050;-65
2023/03/30 11:36:00;;;;;;;9.35;3.75;;;14.50;93.20;;;;;;5082747;28;20020;-65
2023/03/30 11:38:41;;;;;;;12.00;4.43;;;14.60;93.50;;;;;;5098809;28;20024;-65
2023/03/30 11:41:22;;;;;;;16.02;4.35;;;14.40;94.00;;;;;;5096832;28;20028;-65
2023/03/30 11:43:54;;;;;;;16.90;4.53;;;14.40;94.70;;;;;;5097673;28;20214;-65
2023/03/30 11:46:32;;;;;;;12.55;3.92;;;14.50;93.80;;;;;;5095919;28;20085;-66
2023/03/30 11:49:18;;;;;;;13.52;4.45;;;14.20;93.80;;;;;;5095532;28;20093;-65
2023/03/30 11:52:07;;;;;;;19.45;5.50;;;13.80;94.50;;;;;;5087078;28;20028;-65
2023/03/30 11:54:53;;;;;;;16.85;5.00;;;13.20;95.80;;;;;;5079353;28;20020;-66
2023/03/30 11:57:44;;;;;;;16.00;5.53;;;12.50;94.60;;;;;;5091248;28;20059;-66
2023/03/30 12:00:56;;;;;;;14.90;5.20;;;12.10;95.40;;;;;;5092925;28;20023;-66
2023/03/30 12:03:41;;;;;;;14.80;5.90;;;11.90;95.40;;;;;;5081854;28;20060;-65
2023/03/30 12:06:30;;;;;;;13.70;5.07;;;11.80;94.50;;;;;;5094578;28;20078;-66
2023/03/30 12:09:20;;;;;;;12.25;4.97;;;11.80;93.20;;;;;;5078006;28;20073;-65
2023/03/30 12:12:02;;;;;;;13.50;5.88;;;11.80;94.10;;;;;;5077907;28;20074;-66
2023/03/30 12:14:47;;;;;;;14.77;5.07;;;11.90;94.00;;;;;;5075973;28;20111;-65
2023/03/30 12:17:15;;;;;;;11.50;4.30;;;12.00;95.70;;;;;;5080608;28;20021;-66
2023/03/30 12:19:51;;;;;;;15.10;5.80;;;12.10;96.80;;;;;;5087797;28;20024;-65
2023/03/30 12:22:33;;;;;;;13.90;5.82;;;12.00;97.30;;;;;;5091279;28;20099;-65
2023/03/30 12:25:25;;;;;;;15.43;5.35;;;11.80;96.70;;;;;;5094568;28;20060;-65
2023/03/30 12:28:02;;;;;;;14.85;6.07;;;11.90;96.30;;;;;;5076491;28;20067;-65
2023/03/30 12:30:40;;;;;;;13.63;4.80;;;12.10;96.70;;;;;;5077123;28;20115;-65
2023/03/30 12:33:17;;;;;;;14.38;4.90;;;12.30;96.50;;;;;;5076330;28;20433;-65
2023/03/30 12:35:52;;;;;;;8.27;4.22;;;12.50;97.60;;;;;;5076424;28;20025;-65
2023/03/30 12:38:24;;;;;;;15.73;4.05;;;12.60;96.90;;;;;;5086751;28;20115;-66
2023/03/30 12:41:15;;;;;;;9.52;3.05;;;12.90;95.80;;;;;;5084256;28;20016;-66
2023/03/30 12:43:52;;;;;;;8.40;3.40;;;13.10;94.80;;;;;;5076182;28;20305;-66
2023/03/30 12:46:59;;;;;;;8.95;3.47;;;13.10;94.00;;;;;;5084477;28;20024;-65
2023/03/30 12:49:46;;;;;;;11.82;3.80;;;13.10;93.10;;;;;;5078481;28;20079;-66
2023/03/30 12:52:17;;;;;;;10.65;3.65;;;13.20;93.70;;;;;;5085558;28;20032;-65
2023/03/30 12:54:57;;;;;;;13.45;4.57;;;13.60;92.40;;;;;;5081641;28;20024;-65
2023/03/30 12:57:53;;;;;;;10.77;3.80;;;14.10;89.40;;;;;;5088976;28;20037;-65
2023/03/30 13:00:39;;;;;;;10.07;3.33;;;14.00;89.00;;;;;;5079149;28;20037;-66